Time;durP1;ratioP1;P1;durP2;ratioP2;P2;SDS_P1;SDS_P2;PMS_P1;PMS_P2;Temp;Humidity;BMP_temperature;BMP_pressure;BME280_temperature;BME280_humidity;BME280_pressure;Samples;Min_cycle;Max_cycle;Signal;HPM_P1;HPM_P2
2024/03/14 00:02:30;;;;;;;12.23;7.45;;;12.50;84.80;;;;;;9178885;19;20026;-66
2024/03/14 00:05:35;;;;;;;13.75;6.45;;;12.50;84.80;;;;;;9178464;19;20014;-66
2024/03/14 00:08:45;;;;;;;13.43;7.78;;;12.50;84.90;;;;;;9177803;19;20019;-66
2024/03/14 00:11:52;;;;;;;14.27;7.72;;;12.50;85.00;;;;;;9178101;19;20783;-67
2024/03/14 00:15:00;;;;;;;12.88;8.13;;;12.50;84.80;;;;;;9177574;19;20025;-67
2024/03/14 00:18:06;;;;;;;13.50;8.45;;;12.50;84.80;;;;;;9178496;19;20019;-66
2024/03/14 00:21:14;;;;;;;16.77;8.52;;;12.40;84.70;;;;;;9175544;19;20018;-67
2024/03/14 00:24:22;;;;;;;14.65;8.45;;;12.40;84.80;;;;;;9177041;19;20112;-66
2024/03/14 00:27:32;;;;;;;13.98;7.53;;;12.50;84.80;;;;;;9177826;19;20020;-67
2024/03/14 00:30:37;;;;;;;14.23;8.23;;;12.40;84.70;;;;;;9173023;19;20014;-66
2024/03/14 00:33:46;;;;;;;12.90;7.53;;;12.50;84.90;;;;;;9176912;19;20035;-68
2024/03/14 00:36:52;;;;;;;13.77;8.05;;;12.40;84.80;;;;;;9176303;19;20014;-66
2024/03/14 00:40:04;;;;;;;12.50;7.65;;;12.40;84.80;;;;;;9176601;19;20022;-66
2024/03/14 00:43:10;;;;;;;10.15;6.50;;;12.40;84.80;;;;;;9176168;19;20064;-69
2024/03/14 00:46:18;;;;;;;10.90;6.72;;;12.40;84.70;;;;;;9176131;19;20479;-66
2024/03/14 00:49:24;;;;;;;11.07;6.82;;;12.40;84.70;;;;;;9171303;19;20365;-67
2024/03/14 00:52:32;;;;;;;12.85;7.60;;;12.40;84.70;;;;;;9176137;19;20029;-68
2024/03/14 00:55:41;;;;;;;10.15;6.70;;;12.40;84.80;;;;;;9175954;19;20463;-67
2024/03/14 00:58:48;;;;;;;10.50;5.78;;;12.40;84.70;;;;;;9176561;19;20029;-66
2024/03/14 01:01:54;;;;;;;10.73;6.28;;;12.40;84.80;;;;;;9176450;19;20383;-68
2024/03/14 01:05:05;;;;;;;8.82;5.85;;;12.40;84.70;;;;;;9174792;19;20582;-66
2024/03/14 01:08:11;;;;;;;9.20;6.03;;;12.40;84.70;;;;;;9175716;19;20014;-67
2024/03/14 01:11:23;;;;;;;9.32;5.68;;;12.30;84.60;;;;;;9173417;19;20018;-66
2024/03/14 01:14:30;;;;;;;11.10;5.75;;;12.40;84.60;;;;;;9173519;19;20025;-66
2024/03/14 01:17:38;;;;;;;11.30;5.75;;;12.30;84.50;;;;;;9173892;19;20014;-66
2024/03/14 01:20:45;;;;;;;9.27;5.47;;;12.30;84.60;;;;;;9175146;19;20345;-66
2024/03/14 01:23:53;;;;;;;8.68;5.03;;;12.30;84.60;;;;;;9175397;19;20029;-66
2024/03/14 01:27:01;;;;;;;9.27;5.15;;;12.30;84.60;;;;;;9174019;19;20007;-67
2024/03/14 01:30:12;;;;;;;7.15;5.32;;;12.20;84.50;;;;;;9175208;19;20029;-67
2024/03/14 01:33:18;;;;;;;7.93;4.32;;;12.20;84.50;;;;;;9175945;19;20483;-66
2024/03/14 01:36:26;;;;;;;6.47;4.57;;;12.20;84.50;;;;;;9173682;19;20015;-66
2024/03/14 01:39:35;;;;;;;9.50;5.13;;;12.20;84.50;;;;;;9174294;19;20022;-66
2024/03/14 01:42:46;;;;;;;7.88;4.90;;;12.20;84.50;;;;;;9173127;19;20028;-67
2024/03/14 01:45:53;;;;;;;7.93;4.18;;;12.20;84.50;;;;;;9172929;19;20022;-67
2024/03/14 01:49:02;;;;;;;8.15;4.70;;;12.20;84.50;;;;;;9174305;19;20019;-67
2024/03/14 01:52:08;;;;;;;10.35;4.25;;;12.10;84.50;;;;;;9167519;19;20013;-67
2024/03/14 01:55:16;;;;;;;7.88;4.40;;;12.10;84.50;;;;;;9173720;19;20022;-67
2024/03/14 01:58:29;;;;;;;5.72;4.35;;;12.10;84.50;;;;;;9174121;19;20014;-67
2024/03/14 02:01:37;;;;;;;7.57;4.60;;;12.10;84.50;;;;;;9173806;19;20037;-66
2024/03/14 02:04:52;;;;;;;7.22;4.13;;;12.10;85.10;;;;;;9172573;19;20016;-67
2024/03/14 02:07:59;;;;;;;9.65;4.97;;;12.00;84.40;;;;;;9173696;19;20015;-67
2024/03/14 02:11:05;;;;;;;6.35;4.63;;;12.00;84.40;;;;;;9171221;19;20524;-66
2024/03/14 02:14:15;;;;;;;10.38;4.60;;;12.00;84.50;;;;;;9171342;19;20018;-68
2024/03/14 02:17:21;;;;;;;7.20;4.25;;;12.00;84.50;;;;;;9174159;19;20019;-67
2024/03/14 02:20:29;;;;;;;6.93;4.25;;;12.00;84.50;;;;;;9173775;19;20077;-67
2024/03/14 02:23:37;;;;;;;8.38;4.40;;;12.00;84.50;;;;;;9172513;19;20007;-66
2024/03/14 02:26:45;;;;;;;8.73;5.03;;;12.00;84.50;;;;;;9173329;19;20377;-68
2024/03/14 02:29:51;;;;;;;8.38;5.38;;;12.00;84.60;;;;;;9172380;19;20007;-69
2024/03/14 02:32:59;;;;;;;9.10;5.90;;;11.90;84.40;;;;;;9172937;19;20030;-67
2024/03/14 02:36:05;;;;;;;8.77;5.72;;;11.90;84.40;;;;;;9172346;19;20433;-67
2024/03/14 02:39:22;;;;;;;7.18;4.70;;;11.90;84.40;;;;;;9170068;19;20376;-67
2024/03/14 02:42:28;;;;;;;8.18;5.30;;;11.90;84.40;;;;;;9171660;19;20033;-67
2024/03/14 02:45:36;;;;;;;7.57;5.30;;;11.90;84.50;;;;;;9172487;19;20022;-68
2024/03/14 02:48:42;;;;;;;8.85;5.28;;;11.90;84.50;;;;;;9172746;19;20026;-67
2024/03/14 02:51:50;;;;;;;7.28;5.30;;;11.80;84.40;;;;;;9165537;19;20491;-67
2024/03/14 02:54:58;;;;;;;17.15;5.75;;;11.80;84.40;;;;;;9177095;19;20015;-67
2024/03/14 02:58:06;;;;;;;9.50;5.13;;;11.80;84.40;;;;;;9181842;19;20026;-67
2024/03/14 03:01:12;;;;;;;10.45;5.57;;;11.80;84.50;;;;;;9180632;19;20012;-69
2024/03/14 03:04:20;;;;;;;11.43;6.07;;;11.80;84.40;;;;;;9180443;19;20014;-65
2024/03/14 03:07:26;;;;;;;9.23;5.40;;;11.70;84.40;;;;;;9180959;19;20010;-67
2024/03/14 03:10:36;;;;;;;9.88;6.05;;;11.70;85.00;;;;;;9178322;19;20014;-69
2024/03/14 03:13:42;;;;;;;12.10;6.47;;;11.70;84.40;;;;;;9180330;19;20703;-67
2024/03/14 03:16:49;;;;;;;11.25;6.55;;;11.60;84.30;;;;;;9178909;19;20041;-67
2024/03/14 03:19:55;;;;;;;14.15;5.95;;;11.60;84.30;;;;;;9180356;19;20021;-67
2024/03/14 03:23:08;;;;;;;11.13;6.68;;;11.60;84.40;;;;;;9179982;19;20358;-67
2024/03/14 03:26:16;;;;;;;12.43;6.75;;;11.50;84.30;;;;;;9178162;19;20045;-67
2024/03/14 03:29:24;;;;;;;11.38;7.13;;;11.50;84.30;;;;;;9180339;19;20029;-67
2024/03/14 03:32:29;;;;;;;11.15;7.07;;;11.50;84.30;;;;;;9177038;19;20014;-67
2024/03/14 03:35:37;;;;;;;12.43;7.50;;;11.50;84.40;;;;;;9179187;19;20789;-66
2024/03/14 03:38:45;;;;;;;10.48;6.90;;;11.40;84.40;;;;;;9176733;19;20018;-66
2024/03/14 03:41:53;;;;;;;12.50;7.20;;;11.40;84.40;;;;;;9178882;19;20105;-66
2024/03/14 03:44:58;;;;;;;10.43;6.57;;;11.40;84.50;;;;;;9179535;19;20487;-67
2024/03/14 03:48:05;;;;;;;10.80;6.60;;;11.30;84.40;;;;;;9179208;19;20506;-67
2024/03/14 03:51:11;;;;;;;12.35;7.05;;;11.30;84.40;;;;;;9173061;19;20045;-67
2024/03/14 03:54:18;;;;;;;12.20;7.88;;;11.30;84.40;;;;;;9179562;19;20653;-67
2024/03/14 03:57:28;;;;;;;14.43;8.30;;;11.30;84.50;;;;;;9176079;19;20014;-67
2024/03/14 04:00:33;;;;;;;12.80;8.35;;;11.20;84.40;;;;;;9179976;19;20025;-68
2024/03/14 04:03:40;;;;;;;15.93;7.82;;;11.20;84.50;;;;;;9178780;19;20032;-67
2024/03/14 04:06:49;;;;;;;12.68;7.75;;;11.20;84.50;;;;;;9174978;19;20021;-68
2024/03/14 04:09:55;;;;;;;12.43;7.85;;;11.20;84.60;;;;;;9178356;19;20030;-67
2024/03/14 04:13:06;;;;;;;18.40;8.57;;;11.20;84.60;;;;;;9175264;19;20480;-67
2024/03/14 04:16:12;;;;;;;13.90;8.68;;;11.10;84.60;;;;;;9177994;19;20498;-67
2024/03/14 04:19:21;;;;;;;14.02;8.55;;;11.10;84.60;;;;;;9178029;19;20054;-67
2024/03/14 04:22:26;;;;;;;14.57;7.65;;;11.10;84.60;;;;;;9177629;19;20021;-67
2024/03/14 04:25:34;;;;;;;11.95;8.15;;;11.10;84.60;;;;;;9177827;19;20015;-67
2024/03/14 04:28:42;;;;;;;14.15;8.63;;;11.10;84.60;;;;;;9177351;19;20010;-67
2024/03/14 04:31:49;;;;;;;14.95;8.43;;;11.10;84.60;;;;;;9177340;19;20014;-67
2024/03/14 04:34:56;;;;;;;12.57;8.30;;;11.00;84.60;;;;;;9176718;19;20378;-67
2024/03/14 04:38:03;;;;;;;16.33;8.23;;;11.00;84.60;;;;;;9175790;19;20022;-67
2024/03/14 04:41:14;;;;;;;14.93;8.68;;;11.00;84.70;;;;;;9177393;19;20034;-67
2024/03/14 04:44:29;;;;;;;16.27;9.23;;;11.00;84.70;;;;;;9177402;19;20029;-67
2024/03/14 04:47:35;;;;;;;13.65;8.85;;;11.00;84.70;;;;;;9175571;19;20050;-67
2024/03/14 04:50:43;;;;;;;15.85;8.75;;;10.90;84.70;;;;;;9172640;19;20017;-67
2024/03/14 04:53:48;;;;;;;13.98;8.90;;;10.90;84.70;;;;;;9172999;19;20050;-67
2024/03/14 04:56:56;;;;;;;16.77;9.55;;;10.90;84.70;;;;;;9175825;19;20021;-67
2024/03/14 05:00:11;;;;;;;17.65;10.20;;;10.90;84.70;;;;;;9174611;19;20024;-67
2024/03/14 05:03:19;;;;;;;15.35;9.15;;;10.80;84.70;;;;;;9175208;19;20025;-67
2024/03/14 05:06:25;;;;;;;16.27;8.95;;;10.80;84.70;;;;;;9176485;19;20050;-67
2024/03/14 05:09:33;;;;;;;16.73;9.10;;;10.80;84.70;;;;;;9175743;19;20022;-67
2024/03/14 05:12:39;;;;;;;14.88;8.90;;;10.80;84.70;;;;;;9174786;19;20003;-67
2024/03/14 05:15:49;;;;;;;14.40;9.10;;;10.80;84.70;;;;;;9174202;19;20015;-67
2024/03/14 05:18:55;;;;;;;15.45;8.85;;;10.70;84.70;;;;;;9175912;19;20018;-67
2024/03/14 05:22:04;;;;;;;13.80;8.88;;;10.70;84.70;;;;;;9174840;19;20025;-67
2024/03/14 05:25:11;;;;;;;15.65;8.70;;;10.70;84.70;;;;;;9175610;19;20015;-67
2024/03/14 05:28:20;;;;;;;15.25;9.07;;;10.70;84.70;;;;;;9175382;19;20018;-67
2024/03/14 05:31:28;;;;;;;15.48;9.57;;;10.70;84.70;;;;;;9173638;19;20014;-67
2024/03/14 05:34:36;;;;;;;15.38;9.52;;;10.70;84.80;;;;;;9175200;19;20046;-67
2024/03/14 05:37:41;;;;;;;12.05;8.45;;;10.70;84.80;;;;;;9174062;19;20372;-67
2024/03/14 05:40:52;;;;;;;14.30;8.65;;;10.70;84.80;;;;;;9174810;19;20014;-67
2024/03/14 05:43:57;;;;;;;15.85;9.13;;;10.60;84.70;;;;;;9174839;19;20006;-67
2024/03/14 05:47:09;;;;;;;13.60;9.38;;;10.60;84.80;;;;;;9173992;19;20022;-67
2024/03/14 05:50:15;;;;;;;23.10;9.82;;;10.60;84.80;;;;;;9169955;19;20350;-67
2024/03/14 05:53:26;;;;;;;13.93;9.05;;;10.60;84.80;;;;;;9172991;19;20018;-67
2024/03/14 05:56:33;;;;;;;16.98;9.63;;;10.50;84.80;;;;;;9173826;19;20048;-66
2024/03/14 05:59:40;;;;;;;15.52;9.55;;;10.50;84.90;;;;;;9173972;19;20018;-66
2024/03/14 06:02:48;;;;;;;15.13;9.25;;;10.50;84.90;;;;;;9173016;19;20100;-66
2024/03/14 06:05:57;;;;;;;15.57;8.90;;;10.50;85.00;;;;;;9173872;19;20010;-69
2024/03/14 06:09:03;;;;;;;13.85;9.20;;;10.50;85.60;;;;;;9174511;19;20499;-68
2024/03/14 06:12:12;;;;;;;14.85;8.90;;;10.50;85.00;;;;;;9172510;19;20014;-66
2024/03/14 06:15:18;;;;;;;19.10;9.45;;;10.50;85.00;;;;;;9174218;19;20031;-67
2024/03/14 06:18:28;;;;;;;13.25;8.48;;;10.50;85.00;;;;;;9172602;19;20026;-67
2024/03/14 06:21:34;;;;;;;15.13;9.45;;;10.40;85.00;;;;;;9173273;19;20015;-68
2024/03/14 06:24:43;;;;;;;16.92;9.68;;;10.40;84.90;;;;;;9171084;19;20030;-69
2024/03/14 06:27:49;;;;;;;12.88;8.60;;;10.40;84.90;;;;;;9173249;19;20055;-67
2024/03/14 06:30:59;;;;;;;12.60;8.50;;;10.40;85.00;;;;;;9182602;19;20014;-67
2024/03/14 06:34:07;;;;;;;13.15;8.75;;;10.40;85.10;;;;;;9179047;19;20020;-66
2024/03/14 06:37:15;;;;;;;20.20;9.93;;;10.40;85.20;;;;;;9181028;19;20022;-66
2024/03/14 06:40:22;;;;;;;12.98;9.38;;;10.40;85.20;;;;;;9182267;19;20106;-67
2024/03/14 06:43:30;;;;;;;26.83;8.57;;;10.40;85.30;;;;;;9181258;19;20011;-66
2024/03/14 06:46:39;;;;;;;12.07;8.88;;;10.40;85.30;;;;;;9179528;19;20025;-66
2024/03/14 06:49:49;;;;;;;13.27;8.68;;;10.40;85.30;;;;;;9176905;19;20018;-67
2024/03/14 06:52:55;;;;;;;16.33;8.88;;;10.40;85.30;;;;;;9179599;19;20017;-68
2024/03/14 06:56:08;;;;;;;14.82;8.30;;;10.50;85.40;;;;;;9180932;19;20023;-66
2024/03/14 06:59:15;;;;;;;11.98;8.00;;;10.50;85.40;;;;;;9181861;19;20047;-66
2024/03/14 07:02:23;;;;;;;13.00;8.45;;;10.50;85.40;;;;;;9179006;19;20018;-67
2024/03/14 07:05:32;;;;;;;13.07;7.68;;;10.50;86.10;;;;;;9180584;19;20018;-67
2024/03/14 07:08:39;;;;;;;15.38;8.90;;;10.50;85.60;;;;;;9180281;19;20030;-67
2024/03/14 07:11:45;;;;;;;15.13;8.75;;;10.50;85.50;;;;;;9180122;19;20007;-66
2024/03/14 07:14:53;;;;;;;18.65;9.07;;;10.50;85.50;;;;;;9177329;19;20030;-67
2024/03/14 07:17:59;;;;;;;12.55;8.23;;;10.60;85.60;;;;;;9178871;19;20015;-67
2024/03/14 07:21:12;;;;;;;15.45;8.70;;;10.60;85.70;;;;;;9180427;19;20030;-65
2024/03/14 07:24:17;;;;;;;15.13;8.75;;;10.60;85.70;;;;;;9176241;19;20019;-65
2024/03/14 07:27:27;;;;;;;14.65;7.97;;;10.70;85.80;;;;;;9174689;19;20006;-65
2024/03/14 07:30:34;;;;;;;14.27;8.52;;;10.70;85.90;;;;;;9179353;19;20019;-65
2024/03/14 07:33:43;;;;;;;14.30;8.45;;;10.80;85.90;;;;;;9178661;19;20014;-65
2024/03/14 07:36:51;;;;;;;13.27;8.82;;;10.80;85.90;;;;;;9177304;19;20411;-65
2024/03/14 07:39:59;;;;;;;13.32;7.65;;;10.90;86.10;;;;;;9179093;19;20015;-65
2024/03/14 07:43:05;;;;;;;12.50;8.00;;;10.90;86.00;;;;;;9180670;19;20014;-65
2024/03/14 07:46:12;;;;;;;14.38;8.63;;;11.00;86.10;;;;;;9178785;19;20636;-66
2024/03/14 07:49:18;;;;;;;14.73;7.18;;;11.00;86.20;;;;;;9177380;19;20011;-66
2024/03/14 07:52:28;;;;;;;11.93;7.88;;;11.10;86.20;;;;;;9179063;19;20026;-65
2024/03/14 07:55:33;;;;;;;11.45;7.15;;;11.20;86.30;;;;;;9176684;19;20744;-65
2024/03/14 07:58:42;;;;;;;17.85;8.60;;;11.30;86.40;;;;;;9179089;19;20014;-65
2024/03/14 08:01:50;;;;;;;11.55;7.25;;;11.40;86.40;;;;;;9177475;19;20051;-65
2024/03/14 08:04:57;;;;;;;9.88;7.00;;;11.50;86.50;;;;;;9178669;19;20021;-65
2024/03/14 08:08:05;;;;;;;11.07;6.88;;;11.60;86.60;;;;;;9178627;19;20019;-65
2024/03/14 08:11:28;;;;;;;8.82;6.05;;;11.70;86.60;;;;;;9178376;19;20018;-65
2024/03/14 08:14:36;;;;;;;12.52;5.85;;;11.90;86.60;;;;;;9176715;19;20048;-65
2024/03/14 08:17:44;;;;;;;10.90;6.90;;;12.00;86.60;;;;;;9172768;19;21252;-66
2024/03/14 08:20:50;;;;;;;9.40;5.90;;;12.10;86.60;;;;;;9175437;19;20015;-66
2024/03/14 08:24:09;;;;;;;8.57;5.50;;;12.30;86.60;;;;;;9174655;19;20026;-66
2024/03/14 08:27:15;;;;;;;10.00;5.18;;;12.40;86.50;;;;;;9177782;19;20017;-66
2024/03/14 08:30:27;;;;;;;8.60;5.43;;;12.50;86.30;;;;;;9178000;19;20590;-66
2024/03/14 08:33:34;;;;;;;9.75;5.68;;;12.60;86.20;;;;;;9177389;19;20014;-66
2024/03/14 08:36:43;;;;;;;8.45;5.20;;;12.80;86.30;;;;;;9176994;19;20022;-66
2024/03/14 08:39:51;;;;;;;9.18;6.05;;;12.90;86.30;;;;;;9177627;19;20018;-66
2024/03/14 08:42:59;;;;;;;7.70;5.18;;;13.00;86.30;;;;;;9176657;19;20483;-66
2024/03/14 08:46:06;;;;;;;9.05;5.45;;;13.20;86.20;;;;;;9175889;19;20022;-66
2024/03/14 08:49:14;;;;;;;9.57;5.63;;;13.30;86.20;;;;;;9176996;19;20041;-67
2024/03/14 08:52:21;;;;;;;8.98;4.88;;;13.50;86.20;;;;;;9174083;19;20006;-67
2024/03/14 08:55:33;;;;;;;7.97;4.80;;;13.60;86.00;;;;;;9174823;19;20025;-66
2024/03/14 08:58:39;;;;;;;9.73;5.15;;;13.80;85.90;;;;;;9175721;19;20365;-67
2024/03/14 09:01:47;;;;;;;8.18;5.32;;;14.00;85.90;;;;;;9176649;19;20022;-67
2024/03/14 09:04:53;;;;;;;7.72;4.82;;;14.10;85.70;;;;;;9175645;19;20014;-67
2024/03/14 09:08:00;;;;;;;6.43;4.65;;;14.30;85.60;;;;;;9175334;19;20025;-67
2024/03/14 09:11:08;;;;;;;7.32;4.55;;;14.40;85.40;;;;;;9175921;19;20018;-67
2024/03/14 09:14:16;;;;;;;8.32;4.60;;;14.60;85.40;;;;;;9175535;19;20029;-67
2024/03/14 09:17:22;;;;;;;9.07;4.22;;;14.70;85.40;;;;;;9174359;19;20414;-66
2024/03/14 09:20:29;;;;;;;8.10;4.35;;;14.80;85.20;;;;;;9174404;19;20018;-66
2024/03/14 09:23:41;;;;;;;8.25;4.82;;;15.00;85.00;;;;;;9175543;19;20056;-67
2024/03/14 09:26:53;;;;;;;6.68;4.38;;;15.10;84.80;;;;;;9176021;19;20642;-67
2024/03/14 09:29:59;;;;;;;7.50;3.92;;;15.30;84.70;;;;;;9174063;19;20484;-66
2024/03/14 09:33:07;;;;;;;5.57;3.45;;;15.40;84.70;;;;;;9175336;19;20433;-67
2024/03/14 09:36:13;;;;;;;7.82;4.38;;;15.60;84.50;;;;;;9171664;19;20017;-67
2024/03/14 09:39:21;;;;;;;7.15;3.80;;;15.70;84.40;;;;;;9172974;19;20014;-67
2024/03/14 09:42:30;;;;;;;7.40;3.95;;;15.90;84.20;;;;;;9172197;19;20022;-67
2024/03/14 09:45:39;;;;;;;5.97;3.80;;;16.10;84.00;;;;;;9174781;19;20022;-66
2024/03/14 09:48:45;;;;;;;9.40;3.83;;;16.20;83.70;;;;;;9173429;19;20019;-67
2024/03/14 09:51:54;;;;;;;6.88;3.70;;;16.30;83.40;;;;;;9170471;19;20466;-67
2024/03/14 09:55:00;;;;;;;4.90;3.03;;;16.50;83.30;;;;;;9172296;19;20021;-67
2024/03/14 09:58:14;;;;;;;8.18;3.47;;;16.60;83.10;;;;;;9172247;19;20018;-66
2024/03/14 10:01:20;;;;;;;8.98;3.53;;;16.70;82.80;;;;;;9170543;19;20054;-67
2024/03/14 10:04:28;;;;;;;6.38;3.17;;;16.80;82.70;;;;;;9180335;19;20010;-69
2024/03/14 10:07:33;;;;;;;5.95;3.40;;;16.80;82.40;;;;;;9182827;19;20025;-68
2024/03/14 10:10:41;;;;;;;6.55;4.00;;;16.90;83.00;;;;;;9180279;19;20018;-67
2024/03/14 10:13:50;;;;;;;5.60;3.92;;;17.00;82.20;;;;;;9180782;19;20493;-68
2024/03/14 10:16:58;;;;;;;7.10;3.40;;;17.10;81.90;;;;;;9180817;19;20010;-68
2024/03/14 10:20:07;;;;;;;8.23;3.60;;;17.10;81.70;;;;;;9181381;19;20655;-67
2024/03/14 10:23:18;;;;;;;6.15;3.58;;;17.20;81.50;;;;;;9180590;19;20018;-67
2024/03/14 10:26:24;;;;;;;8.63;3.70;;;17.20;81.30;;;;;;9181246;19;20018;-66
2024/03/14 10:29:36;;;;;;;7.03;3.38;;;17.20;81.10;;;;;;9182204;19;20015;-70
2024/03/14 10:32:43;;;;;;;5.45;3.30;;;17.20;80.90;;;;;;9182170;19;20010;-74
2024/03/14 10:35:56;;;;;;;4.28;2.95;;;17.20;80.90;;;;;;9180136;19;20026;-73
2024/03/14 10:39:04;;;;;;;7.50;4.30;;;17.20;80.60;;;;;;9179288;19;20037;-69
2024/03/14 10:42:13;;;;;;;5.72;3.33;;;17.30;80.60;;;;;;9181385;19;20371;-71
2024/03/14 10:45:21;;;;;;;12.77;3.67;;;17.20;80.40;;;;;;9181198;19;20010;-70
2024/03/14 10:48:30;;;;;;;4.18;3.25;;;17.20;80.20;;;;;;9180884;19;20025;-72
2024/03/14 10:51:37;;;;;;;7.97;3.90;;;17.20;80.20;;;;;;9177143;19;20598;-73
2024/03/14 10:54:47;;;;;;;12.32;4.35;;;17.20;80.10;;;;;;9179681;19;20018;-73
2024/03/14 10:57:57;;;;;;;5.45;3.60;;;17.20;80.10;;;;;;9179174;19;20021;-72
2024/03/14 11:01:29;;;;;;;8.63;3.42;;;17.20;80.20;;;;;;9179473;19;20059;-71
2024/03/14 11:04:47;;;;;;;5.10;3.45;;;17.20;80.00;;;;;;9180883;19;20007;-74
2024/03/14 11:08:00;;;;;;;6.88;3.45;;;17.30;80.00;;;;;;9177872;19;20025;-72
2024/03/14 11:11:15;;;;;;;6.28;3.22;;;17.30;80.00;;;;;;9180942;19;20021;-75
2024/03/14 11:14:41;;;;;;;7.78;3.85;;;17.30;79.70;;;;;;9176770;19;20491;-73
2024/03/14 11:17:55;;;;;;;5.43;3.28;;;17.30;79.60;;;;;;9179569;19;21300;-69
2024/03/14 11:21:04;;;;;;;6.97;3.97;;;17.30;79.50;;;;;;9180230;19;20013;-70
2024/03/14 11:24:16;;;;;;;4.80;3.40;;;17.30;79.50;;;;;;9181063;19;20011;-69
2024/03/14 11:27:25;;;;;;;7.07;3.42;;;17.40;79.40;;;;;;9178013;19;20034;-72
2024/03/14 11:30:32;;;;;;;4.35;2.97;;;17.40;79.40;;;;;;9177804;19;20027;-70
2024/03/14 11:33:45;;;;;;;10.07;3.40;;;17.50;79.40;;;;;;9179823;19;20116;-69
2024/03/14 11:36:51;;;;;;;5.32;3.20;;;17.50;79.30;;;;;;9174546;19;20037;-70
2024/03/14 11:39:59;;;;;;;11.48;2.70;;;17.60;79.20;;;;;;9178926;19;20627;-71
2024/03/14 11:43:06;;;;;;;7.18;3.10;;;17.60;79.10;;;;;;9177687;19;20022;-71
2024/03/14 11:46:20;;;;;;;6.95;4.03;;;17.70;79.10;;;;;;9178271;19;20019;-71
2024/03/14 11:49:33;;;;;;;7.07;3.63;;;17.80;79.00;;;;;;9173244;19;20015;-69
2024/03/14 11:52:41;;;;;;;19.13;3.47;;;17.90;78.90;;;;;;9176918;19;20015;-68
2024/03/14 11:55:49;;;;;;;6.78;4.18;;;18.00;79.10;;;;;;9175404;19;20117;-69
2024/03/14 11:59:11;;;;;;;3.38;2.67;;;18.10;78.80;;;;;;9173565;19;20495;-72
2024/03/14 12:02:19;;;;;;;4.85;2.85;;;18.10;78.40;;;;;;9176355;19;20022;-74
2024/03/14 12:05:34;;;;;;;3.92;2.78;;;18.50;78.40;;;;;;9176311;19;20530;-73
2024/03/14 12:08:41;;;;;;;9.00;3.28;;;18.30;78.00;;;;;;9178776;19;20023;-74
2024/03/14 12:11:52;;;;;;;6.72;3.35;;;18.30;78.00;;;;;;9175195;19;20018;-74
2024/03/14 12:14:58;;;;;;;7.15;3.58;;;18.40;77.80;;;;;;9177385;19;20022;-74
2024/03/14 12:18:07;;;;;;;4.15;2.88;;;18.40;77.70;;;;;;9175074;19;20014;-73
2024/03/14 12:21:19;;;;;;;3.53;2.85;;;18.50;77.50;;;;;;9175671;19;20011;-73
2024/03/14 12:24:30;;;;;;;7.72;3.15;;;18.50;77.30;;;;;;9177175;19;20372;-74
2024/03/14 12:27:38;;;;;;;4.90;3.38;;;18.60;77.40;;;;;;9175122;19;20090;-73
2024/03/14 12:30:46;;;;;;;9.55;2.88;;;18.60;77.10;;;;;;9176731;19;20014;-74
2024/03/14 12:33:54;;;;;;;8.38;3.10;;;18.70;77.10;;;;;;9175727;19;20082;-73
2024/03/14 12:37:14;;;;;;;5.22;3.30;;;18.80;76.90;;;;;;9175309;19;20344;-74
2024/03/14 12:40:21;;;;;;;4.68;2.90;;;18.80;76.40;;;;;;9177401;19;20047;-74
2024/03/14 12:43:32;;;;;;;6.57;3.10;;;18.80;76.50;;;;;;9175466;19;20015;-73
2024/03/14 12:46:47;;;;;;;3.90;2.95;;;18.80;76.30;;;;;;9173554;19;20623;-74
2024/03/14 12:49:57;;;;;;;9.38;3.70;;;18.90;76.30;;;;;;9169221;19;20022;-72
2024/03/14 12:53:18;;;;;;;3.20;2.28;;;18.90;76.10;;;;;;9174227;19;20011;-73
2024/03/14 12:56:32;;;;;;;4.72;2.55;;;18.90;75.60;;;;;;9171730;19;20011;-73
2024/03/14 12:59:53;;;;;;;7.28;3.20;;;18.90;75.50;;;;;;9173944;19;20018;-74
2024/03/14 13:03:08;;;;;;;6.13;3.22;;;18.90;75.20;;;;;;9174050;19;20025;-76
2024/03/14 13:06:27;;;;;;;7.03;3.50;;;18.80;75.30;;;;;;9172294;19;20043;-75
2024/03/14 13:09:43;;;;;;;7.18;3.17;;;18.80;75.10;;;;;;9171365;19;20476;-76
2024/03/14 13:13:00;;;;;;;6.33;3.87;;;18.80;75.10;;;;;;9171273;19;20019;-73
2024/03/14 13:16:21;;;;;;;4.93;3.15;;;18.70;75.00;;;;;;9171072;19;20667;-70
2024/03/14 13:19:28;;;;;;;9.02;3.45;;;18.70;74.90;;;;;;9171353;19;20132;-73
2024/03/14 13:22:35;;;;;;;5.30;3.70;;;18.70;75.10;;;;;;9173555;19;20014;-72
2024/03/14 13:25:45;;;;;;;5.88;3.45;;;18.60;75.00;;;;;;9173318;19;20019;-73
2024/03/14 13:28:53;;;;;;;8.82;3.65;;;18.60;74.70;;;;;;9171039;19;20014;-71
2024/03/14 13:31:59;;;;;;;7.38;3.30;;;18.50;74.80;;;;;;9173350;19;20122;-70
2024/03/14 13:35:10;;;;;;;5.90;3.83;;;18.50;74.80;;;;;;9170157;19;20511;-72
2024/03/14 13:38:16;;;;;;;5.05;3.50;;;18.50;74.70;;;;;;9170877;19;20022;-71
2024/03/14 13:41:30;;;;;;;8.65;3.10;;;18.50;74.60;;;;;;9173292;19;20515;-76
2024/03/14 13:44:39;;;;;;;5.20;3.55;;;18.50;75.10;;;;;;9174097;19;20006;-76
2024/03/14 13:47:50;;;;;;;5.07;3.40;;;18.50;74.60;;;;;;9174630;19;20026;-74
2024/03/14 13:50:58;;;;;;;5.53;3.38;;;18.40;75.20;;;;;;9170203;19;20047;-74
2024/03/14 13:54:08;;;;;;;6.03;3.17;;;18.40;74.40;;;;;;9172577;19;20011;-74
2024/03/14 13:57:19;;;;;;;5.85;3.03;;;18.40;74.40;;;;;;9171568;19;20203;-74
2024/03/14 14:00:45;;;;;;;6.65;3.45;;;18.40;74.30;;;;;;9173957;19;20018;-73
2024/03/14 14:03:56;;;;;;;5.28;2.97;;;18.40;74.40;;;;;;9174057;19;20392;-73
2024/03/14 14:07:03;;;;;;;5.05;3.00;;;18.40;74.40;;;;;;9172636;19;20023;-73
2024/03/14 14:10:12;;;;;;;4.22;2.65;;;18.40;74.30;;;;;;9173893;19;20011;-74
2024/03/14 14:13:22;;;;;;;4.82;2.78;;;18.40;74.10;;;;;;9171920;19;20022;-73
2024/03/14 14:16:28;;;;;;;4.00;3.17;;;18.40;74.10;;;;;;9173319;19;20010;-74
2024/03/14 14:19:36;;;;;;;4.43;2.78;;;18.40;74.70;;;;;;9173058;19;20044;-73
2024/03/14 14:22:45;;;;;;;5.85;3.45;;;18.40;74.10;;;;;;9174144;19;20018;-72
2024/03/14 14:25:58;;;;;;;3.83;3.03;;;18.40;73.90;;;;;;9172619;19;20023;-73
2024/03/14 14:29:10;;;;;;;4.70;3.05;;;18.40;73.90;;;;;;9174056;19;20050;-74
2024/03/14 14:32:25;;;;;;;3.40;2.72;;;18.50;73.80;;;;;;9172870;19;20014;-73
2024/03/14 14:35:39;;;;;;;3.78;2.80;;;18.50;74.40;;;;;;9172803;19;20014;-73
2024/03/14 14:38:48;;;;;;;8.27;3.17;;;18.50;73.60;;;;;;9170660;19;20030;-73
2024/03/14 14:41:59;;;;;;;4.55;2.72;;;18.50;73.50;;;;;;9171592;19;20013;-72
2024/03/14 14:45:11;;;;;;;4.13;2.70;;;18.70;73.50;;;;;;9171097;19;20023;-74
2024/03/14 14:48:25;;;;;;;3.70;2.92;;;18.60;73.30;;;;;;9171705;19;20043;-73
2024/03/14 14:51:35;;;;;;;5.10;3.10;;;18.50;73.30;;;;;;9173128;19;20483;-74
2024/03/14 14:54:43;;;;;;;4.95;3.47;;;18.50;73.10;;;;;;9181142;19;20561;-74
2024/03/14 14:57:56;;;;;;;5.00;2.50;;;18.70;75.30;;;;;;9179808;19;20025;-74
2024/03/14 15:01:05;;;;;;;7.03;3.00;;;18.60;72.80;;;;;;9178764;19;20014;-73
2024/03/14 15:04:16;;;;;;;5.73;3.60;;;18.60;73.40;;;;;;9180341;19;20019;-74
2024/03/14 15:07:24;;;;;;;5.75;3.42;;;18.60;72.90;;;;;;9179158;19;20047;-75
2024/03/14 15:10:35;;;;;;;6.85;3.58;;;18.50;72.60;;;;;;9179575;19;20015;-75
2024/03/14 15:13:50;;;;;;;8.15;3.95;;;18.50;72.60;;;;;;9178139;19;20095;-69
2024/03/14 15:17:01;;;;;;;9.63;3.72;;;18.50;72.60;;;;;;9179891;19;20021;-69
2024/03/14 15:20:08;;;;;;;8.82;4.07;;;18.50;72.50;;;;;;9179088;19;20010;-70
2024/03/14 15:23:16;;;;;;;9.18;4.20;;;18.50;72.50;;;;;;9178299;19;20018;-69
2024/03/14 15:26:23;;;;;;;5.28;3.53;;;18.50;72.60;;;;;;9177950;19;20364;-70
2024/03/14 15:29:30;;;;;;;6.03;3.90;;;18.50;72.50;;;;;;9180523;19;20007;-70
2024/03/14 15:32:39;;;;;;;7.95;4.10;;;18.50;72.40;;;;;;9178974;19;20017;-70
2024/03/14 15:35:47;;;;;;;6.55;4.03;;;18.50;72.20;;;;;;9176357;19;20456;-70
2024/03/14 15:38:55;;;;;;;6.20;3.67;;;18.50;72.30;;;;;;9172980;19;20022;-70
2024/03/14 15:42:03;;;;;;;6.90;4.18;;;18.50;72.20;;;;;;9175940;19;20011;-70
2024/03/14 15:45:16;;;;;;;5.82;3.92;;;18.50;72.10;;;;;;9178373;19;20483;-70
2024/03/14 15:48:30;;;;;;;10.95;3.95;;;18.50;72.00;;;;;;9176816;19;20495;-70
2024/03/14 15:51:36;;;;;;;6.72;3.67;;;18.40;71.70;;;;;;9175405;19;20015;-70
2024/03/14 15:54:44;;;;;;;6.10;3.78;;;18.40;71.80;;;;;;9176122;19;20022;-70
2024/03/14 15:57:50;;;;;;;8.75;3.97;;;18.40;71.80;;;;;;9176761;19;20022;-70
2024/03/14 16:00:57;;;;;;;8.43;3.25;;;18.40;71.80;;;;;;9176920;19;20018;-71
2024/03/14 16:04:06;;;;;;;5.70;3.30;;;18.30;71.70;;;;;;9178524;19;20398;-70
2024/03/14 16:07:14;;;;;;;6.60;3.70;;;18.30;71.60;;;;;;9178582;19;20674;-70
2024/03/14 16:10:19;;;;;;;4.90;3.50;;;18.30;72.10;;;;;;9179191;19;20062;-70
2024/03/14 16:13:27;;;;;;;7.07;3.75;;;18.20;71.60;;;;;;9176567;19;20011;-70
2024/03/14 16:16:34;;;;;;;6.22;3.80;;;18.20;72.10;;;;;;9176514;19;20768;-70
2024/03/14 16:19:45;;;;;;;7.22;3.70;;;18.10;71.50;;;;;;9176514;19;20033;-71